Terminal Aerodrome Forecast
Issued by NWS Anchorage, AK

Home | Current Version | Previous Version | Text Only | Print | Product List | Glossary On
Versions: 1 2 3 4 5 6 7 8 9 10 11 12 13 14 15 16 17 18 19 20 21 22 23
000
FTAK31 PANC 282344
TAFANC
TAF
PANC 282344Z 2900/3006 14015G25KT P6SM VCTS SCT030CB BKN090
     FM290300 16010G20KT P6SM -SHRA BKN050 BKN080
     FM290600 16010G18KT P6SM -SHRA SCT020 BKN040 OVC060
     FM291800 16008KT P6SM BKN030 OVC050=

USA.gov is the U.S. government's official web portal to all federal, state and local government web resources and services.